This is the latest recevied weather packets stored in our database for station/object VK5TRM-13. If no packets are shown the sender has not sent any weather packets the latest 10 day(s).
| Time | Temp. | Humidity | Pressure | Rain* | Wind** | Luminosity | Snow |
|---|---|---|---|---|---|---|---|
| 1777497304 | 10° C | 74% | 1024 hPa | 0 mm | - | - | - |
| 1777496405 | 9.44° C | 78% | 1023.8 hPa | 0 mm | - | - | - |
| 1777495504 | 9.44° C | 78% | 1023.8 hPa | 0 mm | - | - | - |
| 1777494604 | 9.44° C | 77% | 1023.7 hPa | 0 mm | - | - | - |
| 1777493704 | 9.44° C | 77% | 1023.7 hPa | 0 mm | - | - | - |
| 1777492804 | 9.44° C | 77% | 1023.6 hPa | 0 mm | - | - | - |
| 1777491905 | 9.44° C | 77% | 1023.6 hPa | 0 mm | - | - | - |
| 1777491005 | 10.56° C | 72% | 1023.4 hPa | 0 mm | - | - | - |
| 1777490105 | 10.56° C | 72% | 1023.4 hPa | 0 mm | - | - | - |
| 1777489204 | 12.22° C | 64% | 1023.3 hPa | 0 mm | - | - | - |
| 1777488305 | 12.22° C | 64% | 1023.3 hPa | 0 mm | - | - | - |
| 1777487404 | 11.11° C | 72% | 1023.4 hPa | 0 mm | - | - | - |
| 1777486504 | 11.11° C | 72% | 1023.4 hPa | 0 mm | - | - | - |
| 1777485604 | 11.67° C | 72% | 1023.4 hPa | 0 mm | - | - | - |
| 1777484704 | 11.67° C | 72% | 1023.4 hPa | 0 mm | - | - | - |
| 1777483805 | 11.67° C | 73% | 1023.6 hPa | 0 mm | - | - | - |
| 1777482905 | 11.67° C | 73% | 1023.6 hPa | 0 mm | - | - | - |
| 1777482004 | 11.67° C | 71% | 1023.8 hPa | 0 mm | - | - | - |
| 1777481104 | 11.67° C | 71% | 1023.8 hPa | 0 mm | - | - | - |
| 1777480204 | 11.11° C | 72% | 1024 hPa | 0 mm | - | - | - |
| 1777479305 | 11.11° C | 72% | 1024 hPa | 0 mm | - | - | - |
| 1777478405 | 11.11° C | 70% | 1024.1 hPa | 0 mm | - | - | - |
| 1777477505 | 11.11° C | 70% | 1024.1 hPa | 0 mm | - | - | - |
| 1777476605 | 11.11° C | 68% | 1024.2 hPa | 0 mm | - | - | - |
| 1777475705 | 11.11° C | 68% | 1024.2 hPa | 0 mm | - | - | - |
* Rain since midnight (hover to see other rain measurements)
** Current wind speed in m/s (hover to see current wind gust speed)